createdAt,value
2023-02-11T00:00:30.048Z,-4.54
2023-02-11T00:03:30.189Z,-4.48
2023-02-11T00:06:30.098Z,-4.50
2023-02-11T00:09:31.863Z,-4.69
2023-02-11T00:12:32.049Z,-4.62
2023-02-11T00:15:32.342Z,-4.53
2023-02-11T00:18:32.065Z,-4.57
2023-02-11T00:21:35.110Z,-4.59
2023-02-11T00:24:37.099Z,-4.59
2023-02-11T00:27:37.118Z,-4.62
2023-02-11T00:30:38.160Z,-4.77
2023-02-11T00:33:38.074Z,-4.57
2023-02-11T00:36:40.090Z,-4.62
2023-02-11T00:39:41.071Z,-4.54
2023-02-11T00:42:42.061Z,-4.66
2023-02-11T00:45:43.039Z,-4.59
2023-02-11T00:48:43.095Z,-4.55
2023-02-11T00:51:43.048Z,-4.61
2023-02-11T00:54:43.043Z,-4.63
2023-02-11T00:57:43.042Z,-4.65
2023-02-11T01:00:43.050Z,-4.62
2023-02-11T01:03:43.073Z,-4.77
2023-02-11T01:06:43.085Z,-4.82
2023-02-11T01:09:43.050Z,-4.69
2023-02-11T01:12:43.049Z,-4.76
2023-02-11T01:15:44.117Z,-4.90
2023-02-11T01:18:44.093Z,-4.85
2023-02-11T01:21:44.062Z,-4.77
2023-02-11T01:24:48.048Z,-4.83
2023-02-11T01:27:48.049Z,-4.84
2023-02-11T01:30:49.108Z,-4.78
2023-02-11T01:33:49.062Z,-4.80
2023-02-11T01:36:49.037Z,-4.91
2023-02-11T01:39:49.062Z,-4.93
2023-02-11T01:42:42.153Z,-4.99
2023-02-11T01:46:00.375Z,-4.98
2023-02-11T01:49:04.373Z,-4.96
2023-02-11T01:52:12.050Z,-5.01
2023-02-11T01:55:39.040Z,-5.06
2023-02-11T01:58:39.054Z,-5.13
2023-02-11T02:01:40.168Z,-5.33
2023-02-11T02:04:42.074Z,-5.25
2023-02-11T02:07:50.082Z,-5.39
2023-02-11T02:10:52.074Z,-5.44
2023-02-11T02:13:52.046Z,-5.48
2023-02-11T02:16:52.027Z,-5.37
2023-02-11T02:20:33.145Z,-5.48
2023-02-11T02:23:38.395Z,-5.43
2023-02-11T02:27:08.087Z,-5.43
2023-02-11T02:30:39.189Z,-5.40
2023-02-11T02:33:44.322Z,-5.38
2023-02-11T02:37:05.033Z,-5.41
2023-02-11T02:40:05.049Z,-5.44
2023-02-11T02:43:06.108Z,-5.52
2023-02-11T02:46:06.368Z,-5.50
2023-02-11T02:49:07.040Z,-5.49
2023-02-11T02:52:10.040Z,-5.55
2023-02-11T02:55:39.072Z,-5.55
2023-02-11T02:59:02.043Z,-5.53
2023-02-11T03:02:18.063Z,-5.54
2023-02-11T03:05:24.041Z,-5.54
2023-02-11T03:08:37.076Z,-5.58
2023-02-11T03:11:38.038Z,-5.73
2023-02-11T03:14:39.062Z,-5.72
2023-02-11T03:17:40.060Z,-5.63
2023-02-11T03:20:41.037Z,-5.71
2023-02-11T03:23:45.056Z,-5.76
2023-02-11T03:27:04.062Z,-5.70
2023-02-11T03:30:08.066Z,-5.74
2023-02-11T03:33:19.053Z,-5.74
2023-02-11T03:36:32.075Z,-5.78
2023-02-11T03:39:36.066Z,-5.80
2023-02-11T03:42:37.081Z,-5.96
2023-02-11T03:45:38.105Z,-5.81
2023-02-11T03:48:45.047Z,-5.93
2023-02-11T03:51:46.036Z,-5.95
2023-02-11T03:54:46.049Z,-5.87
2023-02-11T03:57:46.035Z,-6.02
2023-02-11T04:00:51.181Z,-5.97
2023-02-11T04:03:51.085Z,-5.82
2023-02-11T04:06:51.041Z,-5.96
2023-02-11T04:09:51.053Z,-5.99
2023-02-11T04:12:51.046Z,-6.09
2023-02-11T04:15:44.140Z,-6.00
2023-02-11T04:18:44.076Z,-6.06
2023-02-11T04:21:44.069Z,-5.96
2023-02-11T04:24:37.306Z,-6.05
2023-02-11T04:27:24.043Z,-5.88
2023-02-11T04:30:24.046Z,-6.07
2023-02-11T04:33:24.024Z,-6.00
2023-02-11T04:36:24.026Z,-6.02
2023-02-11T04:39:24.066Z,-5.91
2023-02-11T04:42:24.054Z,-6.02
2023-02-11T04:45:24.053Z,-6.03
2023-02-11T04:48:24.052Z,-5.86
2023-02-11T04:51:24.062Z,-5.96
2023-02-11T04:54:24.070Z,-5.94
2023-02-11T04:57:17.135Z,-6.10
2023-02-11T05:00:18.266Z,-5.99
2023-02-11T05:03:18.051Z,-6.03
2023-02-11T05:06:18.039Z,-6.06
2023-02-11T05:09:18.065Z,-6.12
2023-02-11T05:12:18.365Z,-6.16
2023-02-11T05:15:18.027Z,-6.06
2023-02-11T05:18:18.009Z,-6.07
2023-02-11T05:21:22.022Z,-6.27
2023-02-11T05:24:22.040Z,-6.10
2023-02-11T05:27:22.317Z,-6.27
2023-02-11T05:30:23.046Z,-6.23
2023-02-11T05:33:23.016Z,-6.19
2023-02-11T05:36:25.046Z,-6.20
2023-02-11T05:39:24.992Z,-6.26
2023-02-11T05:42:25.018Z,-6.21
2023-02-11T05:45:25.163Z,-6.21
2023-02-11T05:48:25.074Z,-6.20
2023-02-11T05:51:25.007Z,-6.19
2023-02-11T05:54:25.025Z,-6.23
2023-02-11T05:57:25.055Z,-6.15
2023-02-11T06:00:25.030Z,-6.09
2023-02-11T06:03:25.062Z,-6.15
2023-02-11T06:06:26.058Z,-6.17
2023-02-11T06:09:26.031Z,-6.08
2023-02-11T06:12:26.047Z,-6.02
2023-02-11T06:15:26.005Z,-6.06
2023-02-11T06:18:26.046Z,-5.95
2023-02-11T06:21:36.307Z,-5.91
2023-02-11T06:25:00.293Z,-6.02
2023-02-11T06:28:01.139Z,-5.77
2023-02-11T06:31:01.128Z,-5.69
2023-02-11T06:34:01.989Z,-5.63
2023-02-11T06:37:01.999Z,-5.66
2023-02-11T06:40:02.046Z,-5.51
2023-02-11T06:43:02.022Z,-5.42
2023-02-11T06:46:01.042Z,-5.35
2023-02-11T06:48:48.036Z,-5.15
2023-02-11T06:51:48.028Z,-5.08
2023-02-11T06:54:48.358Z,-5.02
2023-02-11T06:57:48.001Z,-4.87
2023-02-11T07:00:47.993Z,-4.62
2023-02-11T07:03:53.030Z,-4.52
2023-02-11T07:06:53.016Z,-4.43
2023-02-11T07:09:52.992Z,-4.21
2023-02-11T07:12:53.053Z,-4.32
2023-02-11T07:15:53.322Z,-4.31
2023-02-11T07:18:53.028Z,-4.37
2023-02-11T07:21:53.035Z,-4.42
2023-02-11T07:24:53.030Z,-4.35
2023-02-11T07:27:53.023Z,-4.18
2023-02-11T07:30:53.027Z,-4.04
2023-02-11T07:33:53.033Z,-3.74
2023-02-11T07:36:52.987Z,-3.56
2023-02-11T07:39:53.035Z,-3.61
2023-02-11T07:42:53.026Z,-3.36
2023-02-11T07:45:53.039Z,-3.19
2023-02-11T07:48:52.982Z,-3.04
2023-02-11T07:51:54.037Z,-2.64
2023-02-11T07:54:54.036Z,-2.66
2023-02-11T07:57:53.995Z,-2.62
2023-02-11T08:00:54.076Z,-2.34
2023-02-11T08:03:54.052Z,-2.21
2023-02-11T08:06:57.915Z,-2.22
2023-02-11T08:09:59.012Z,-2.42
2023-02-11T08:12:58.995Z,-2.55
2023-02-11T08:15:59.112Z,-2.41
2023-02-11T08:18:58.983Z,-2.51
2023-02-11T08:21:58.972Z,-2.30
2023-02-11T08:24:58.978Z,-2.36
2023-02-11T08:27:59.017Z,-2.37
2023-02-11T08:30:59.050Z,-2.25
2023-02-11T08:33:58.974Z,-2.39
2023-02-11T08:37:00.991Z,-2.28
2023-02-11T08:40:00.988Z,-2.12
2023-02-11T08:42:54.030Z,-1.92
2023-02-11T08:45:40.066Z,-1.74
2023-02-11T08:48:40.003Z,-1.63
2023-02-11T08:51:41.985Z,-1.34
2023-02-11T08:54:42.019Z,-1.22
2023-02-11T08:57:42.005Z,-1.04
2023-02-11T09:00:42.005Z,-0.66
2023-02-11T09:03:41.974Z,-0.48
2023-02-11T09:06:42.040Z,0.67
2023-02-11T09:09:41.985Z,0.79
2023-02-11T09:12:42.308Z,0.39
2023-02-11T09:15:42.018Z,0.08
2023-02-11T09:18:41.963Z,-0.49
2023-02-11T09:21:42.002Z,-0.70
2023-02-11T09:24:41.989Z,-0.61
2023-02-11T09:27:42.013Z,-0.68
2023-02-11T09:30:42.063Z,-0.54
2023-02-11T09:33:42.004Z,-0.40
2023-02-11T09:36:43.978Z,-0.34
2023-02-11T09:39:44.043Z,-0.21
2023-02-11T09:43:16.026Z,-0.10
2023-02-11T09:46:16.063Z,0.00
2023-02-11T09:49:16.011Z,-0.02
2023-02-11T09:52:25.992Z,0.17
2023-02-11T09:55:38.970Z,0.05
2023-02-11T09:58:50.245Z,0.37
2023-02-11T10:02:04.041Z,0.29
2023-02-11T10:05:36.001Z,0.23
2023-02-11T10:08:47.969Z,0.08
2023-02-11T10:12:26.999Z,0.26
2023-02-11T10:15:30.077Z,0.74
2023-02-11T10:18:33.008Z,1.53
2023-02-11T10:22:05.031Z,1.67
2023-02-11T10:25:09.005Z,1.43
2023-02-11T10:28:11.068Z,1.43
2023-02-11T10:31:18.146Z,1.28
2023-02-11T10:34:23.992Z,1.61
2023-02-11T10:37:27.012Z,1.64
2023-02-11T10:40:35.991Z,1.41
2023-02-11T10:43:39.997Z,1.09
2023-02-11T10:46:44.045Z,1.24
2023-02-11T10:49:53.030Z,1.48
2023-02-11T10:52:53.058Z,1.86
2023-02-11T10:55:53.014Z,1.71
2023-02-11T10:59:11.987Z,1.73
2023-02-11T11:02:17.976Z,1.90
2023-02-11T11:05:29.027Z,2.57
2023-02-11T11:08:28.992Z,3.03
2023-02-11T11:11:32.005Z,2.78
2023-02-11T11:14:35.980Z,2.67
2023-02-11T11:17:35.982Z,2.61
2023-02-11T11:20:41.995Z,2.23
2023-02-11T11:23:44.015Z,1.69
2023-02-11T11:26:54.993Z,1.33
2023-02-11T11:30:09.005Z,1.31
2023-02-11T11:33:08.978Z,1.08
2023-02-11T11:36:11.027Z,1.06
2023-02-11T11:39:11.992Z,1.23
2023-02-11T11:42:18.235Z,1.08
2023-02-11T11:45:30.040Z,1.34
2023-02-11T11:48:24.994Z,1.62
2023-02-11T11:51:16.018Z,1.78
2023-02-11T11:54:22.986Z,1.73
2023-02-11T11:57:37.986Z,2.01
2023-02-11T12:00:55.009Z,3.52
2023-02-11T12:04:12.013Z,4.32
2023-02-11T12:07:28.964Z,4.06
2023-02-11T12:10:28.022Z,4.40
2023-02-11T12:13:46.954Z,4.27
2023-02-11T12:17:04.014Z,4.22
2023-02-11T12:20:11.982Z,4.05
2023-02-11T12:23:22.956Z,4.98
2023-02-11T12:26:37.002Z,4.66
2023-02-11T12:30:02.022Z,4.04
2023-02-11T12:33:13.994Z,3.66
2023-02-11T12:36:42.091Z,3.55
2023-02-11T12:39:56.004Z,3.43
2023-02-11T12:43:22.990Z,3.80
2023-02-11T12:46:44.994Z,3.48
2023-02-11T12:49:57.986Z,3.39
2023-02-11T12:53:09.966Z,2.66
2023-02-11T12:56:13.994Z,2.52
2023-02-11T12:59:16.014Z,3.11
2023-02-11T13:02:25.058Z,2.57
2023-02-11T13:05:30.998Z,2.92
2023-02-11T13:08:47.972Z,3.36
2023-02-11T13:11:58.968Z,2.94
2023-02-11T13:14:59.978Z,2.83
2023-02-11T13:18:07.956Z,2.49
2023-02-11T13:21:39.949Z,2.59
2023-02-11T13:25:12.974Z,2.41
2023-02-11T13:28:37.245Z,2.74
2023-02-11T13:31:37.196Z,2.66
2023-02-11T13:34:38.932Z,2.57
2023-02-11T13:37:52.006Z,2.84
2023-02-11T13:40:53.188Z,3.08
2023-02-11T13:43:53.019Z,3.15
2023-02-11T13:47:01.961Z,3.04
2023-02-11T13:50:04.046Z,3.34
2023-02-11T13:53:13.940Z,2.90
2023-02-11T13:56:28.976Z,2.44
2023-02-11T13:59:18.022Z,3.12
2023-02-11T14:02:51.073Z,2.79
2023-02-11T14:06:08.978Z,2.48
2023-02-11T14:09:24.027Z,2.52
2023-02-11T14:12:37.014Z,2.35
2023-02-11T14:15:40.000Z,2.35
2023-02-11T14:19:13.024Z,2.35
2023-02-11T14:22:18.079Z,2.35
2023-02-11T14:25:19.003Z,2.38
2023-02-11T14:28:42.031Z,2.46
2023-02-11T14:32:11.096Z,2.47
2023-02-11T14:35:27.974Z,2.43
2023-02-11T14:38:52.998Z,2.33
2023-02-11T14:41:55.097Z,2.28
2023-02-11T14:44:54.955Z,2.19
2023-02-11T14:48:03.014Z,2.08
2023-02-11T14:51:13.998Z,1.57
2023-02-11T14:54:25.006Z,2.09
2023-02-11T14:57:33.961Z,1.51
2023-02-11T15:00:36.018Z,2.09
2023-02-11T15:03:44.980Z,1.73
2023-02-11T15:06:52.020Z,2.12
2023-02-11T15:09:59.948Z,1.98
2023-02-11T15:13:00.023Z,1.97
2023-02-11T15:16:00.117Z,1.71
2023-02-11T15:19:08.988Z,1.96
2023-02-11T15:22:08.997Z,1.80
2023-02-11T15:25:23.964Z,1.84
2023-02-11T15:28:50.009Z,1.79
2023-02-11T15:31:50.066Z,1.73
2023-02-11T15:34:50.054Z,1.58
2023-02-11T15:37:50.730Z,1.62
2023-02-11T15:40:51.280Z,1.57
2023-02-11T15:43:57.979Z,1.56
2023-02-11T15:46:57.958Z,1.21
2023-02-11T15:49:58.970Z,1.48
2023-02-11T15:53:00.003Z,1.42
2023-02-11T15:56:00.008Z,1.17
2023-02-11T15:59:01.058Z,1.25
2023-02-11T16:02:02.039Z,1.28
2023-02-11T16:05:08.035Z,1.23
2023-02-11T16:08:07.964Z,1.10
2023-02-11T16:11:09.961Z,1.11
2023-02-11T16:14:10.038Z,0.88
2023-02-11T16:17:24.956Z,0.83
2023-02-11T16:20:32.992Z,0.89
2023-02-11T16:23:38.996Z,0.90
2023-02-11T16:26:49.973Z,0.89
2023-02-11T16:29:51.004Z,0.84
2023-02-11T16:32:45.029Z,0.86
2023-02-11T16:35:31.006Z,0.99
2023-02-11T16:38:32.034Z,0.99
2023-02-11T16:41:31.986Z,0.95
2023-02-11T16:44:31.999Z,0.79
2023-02-11T16:47:40.030Z,0.83
2023-02-11T16:50:40.047Z,0.78
2023-02-11T16:53:39.995Z,0.79
2023-02-11T16:56:39.952Z,0.85
2023-02-11T16:59:42.069Z,0.34
2023-02-11T17:02:46.969Z,0.97
2023-02-11T17:05:55.320Z,0.93
2023-02-11T17:08:55.998Z,0.84
2023-02-11T17:11:56.012Z,0.92
2023-02-11T17:14:56.002Z,1.02
2023-02-11T17:17:55.972Z,0.55
2023-02-11T17:20:55.947Z,0.93
2023-02-11T17:23:56.008Z,0.96
2023-02-11T17:26:56.998Z,0.83
2023-02-11T17:29:56.961Z,0.74
2023-02-11T17:32:56.990Z,0.72
2023-02-11T17:35:57.043Z,0.74
2023-02-11T17:38:57.991Z,0.59
2023-02-11T17:41:57.958Z,0.36
2023-02-11T17:44:57.992Z,0.25
2023-02-11T17:47:57.947Z,-0.14
2023-02-11T17:50:57.966Z,0.15
2023-02-11T17:53:58.003Z,0.08
2023-02-11T17:56:58.641Z,-0.05
2023-02-11T17:59:57.950Z,-0.18
2023-02-11T18:03:09.027Z,-0.04
2023-02-11T18:06:13.940Z,-0.09
2023-02-11T18:09:13.961Z,-0.06
2023-02-11T18:12:13.948Z,0.15
2023-02-11T18:15:13.994Z,0.18
2023-02-11T18:18:13.958Z,0.37
2023-02-11T18:21:15.992Z,0.38
2023-02-11T18:24:15.986Z,0.47
2023-02-11T18:27:15.990Z,0.46
2023-02-11T18:30:15.944Z,0.59
2023-02-11T18:33:18.974Z,0.70
2023-02-11T18:36:26.960Z,0.57
2023-02-11T18:39:26.986Z,0.85
2023-02-11T18:42:26.971Z,0.89
2023-02-11T18:45:26.942Z,0.80
2023-02-11T18:48:26.972Z,0.83
2023-02-11T18:51:29.937Z,0.97
2023-02-11T18:54:29.963Z,0.80
2023-02-11T18:57:29.937Z,0.88
2023-02-11T19:00:30.068Z,1.02
2023-02-11T19:03:29.947Z,0.66
2023-02-11T19:06:33.016Z,0.95
2023-02-11T19:09:33.995Z,0.99
2023-02-11T19:12:33.972Z,1.02
2023-02-11T19:15:34.062Z,0.81
2023-02-11T19:18:34.004Z,1.04
2023-02-11T19:21:33.964Z,1.04
2023-02-11T19:24:33.934Z,1.00
2023-02-11T19:27:34.017Z,1.16
2023-02-11T19:30:34.041Z,0.63
2023-02-11T19:33:33.978Z,1.14
2023-02-11T19:36:33.980Z,1.24
2023-02-11T19:39:34.170Z,1.28
2023-02-11T19:42:33.977Z,1.10
2023-02-11T19:45:33.997Z,1.15
2023-02-11T19:48:33.961Z,1.43
2023-02-11T19:51:35.003Z,0.97
2023-02-11T19:54:38.020Z,1.58
2023-02-11T19:57:37.971Z,1.39
2023-02-11T20:00:38.009Z,1.15
2023-02-11T20:03:40.782Z,1.62
2023-02-11T20:06:43.945Z,1.60
2023-02-11T20:09:43.937Z,1.61
2023-02-11T20:12:44.017Z,1.64
2023-02-11T20:15:43.983Z,1.44
2023-02-11T20:18:44.042Z,1.60
2023-02-11T20:21:46.705Z,1.58
2023-02-11T20:24:46.968Z,1.61
2023-02-11T20:27:46.975Z,1.59
2023-02-11T20:30:46.934Z,1.55
2023-02-11T20:33:46.980Z,1.38
2023-02-11T20:36:47.933Z,1.37
2023-02-11T20:39:49.031Z,1.27
2023-02-11T20:42:49.060Z,1.32
2023-02-11T20:45:48.992Z,0.58
2023-02-11T20:48:48.910Z,1.32
2023-02-11T20:51:49.021Z,1.02
2023-02-11T20:54:48.974Z,1.11
2023-02-11T20:57:48.994Z,0.63
2023-02-11T21:00:49.930Z,0.98
2023-02-11T21:03:50.929Z,0.90
2023-02-11T21:06:53.991Z,0.97
2023-02-11T21:09:54.867Z,0.82
2023-02-11T21:12:55.237Z,0.84
2023-02-11T21:15:55.301Z,0.79
2023-02-11T21:18:54.984Z,0.72
2023-02-11T21:21:55.003Z,0.44
2023-02-11T21:24:54.978Z,0.52
2023-02-11T21:27:54.919Z,0.32
2023-02-11T21:30:56.170Z,0.43
2023-02-11T21:33:56.014Z,0.49
2023-02-11T21:36:57.960Z,0.47
2023-02-11T21:39:57.993Z,0.45
2023-02-11T21:42:57.932Z,0.40
2023-02-11T21:46:02.972Z,0.38
2023-02-11T21:49:02.951Z,0.35
2023-02-11T21:52:02.942Z,0.21
2023-02-11T21:55:04.003Z,0.36
2023-02-11T21:58:03.966Z,0.21
2023-02-11T22:01:04.031Z,0.28
2023-02-11T22:04:03.960Z,0.17
2023-02-11T22:07:03.987Z,0.06
2023-02-11T22:10:03.985Z,0.16
2023-02-11T22:13:03.922Z,0.00
2023-02-11T22:16:12.033Z,0.04
2023-02-11T22:19:13.976Z,0.04
2023-02-11T22:22:14.966Z,-0.23
2023-02-11T22:25:15.024Z,0.07
2023-02-11T22:28:15.039Z,-0.02
2023-02-11T22:31:15.113Z,-0.14
2023-02-11T22:34:16.006Z,-0.29
2023-02-11T22:37:16.010Z,-0.34
2023-02-11T22:40:15.943Z,-0.33
2023-02-11T22:43:15.937Z,-0.55
2023-02-11T22:46:17.098Z,-0.64
2023-02-11T22:49:17.942Z,-0.51
2023-02-11T22:52:17.957Z,-0.81
2023-02-11T22:55:17.954Z,-0.71
2023-02-11T22:58:17.982Z,-1.04
2023-02-11T23:01:18.973Z,-0.86
2023-02-11T23:04:20.945Z,-0.95
2023-02-11T23:07:20.942Z,-0.81
2023-02-11T23:10:20.945Z,-0.84
2023-02-11T23:13:20.929Z,-0.86
2023-02-11T23:16:23.020Z,-0.78
2023-02-11T23:19:24.005Z,-0.77
2023-02-11T23:22:23.958Z,-0.82
2023-02-11T23:25:23.956Z,-0.88
2023-02-11T23:28:23.965Z,-0.94
2023-02-11T23:31:34.125Z,-0.90
2023-02-11T23:34:33.926Z,-1.11
2023-02-11T23:37:34.008Z,-1.09
2023-02-11T23:40:35.926Z,-1.10
2023-02-11T23:43:35.960Z,-1.14
2023-02-11T23:46:35.918Z,-1.25
2023-02-11T23:49:35.945Z,-1.46
2023-02-11T23:52:35.916Z,-1.59
2023-02-11T23:55:35.961Z,-1.46
2023-02-11T23:58:35.966Z,-1.50
